createdAt,value
2019-06-01T00:01:32.488Z,4.80
2019-06-01T00:04:05.459Z,4.40
2019-06-01T00:06:38.634Z,4.00
2019-06-01T00:09:11.208Z,2.60
2019-06-01T00:11:45.405Z,5.00
2019-06-01T00:17:29.915Z,4.00
2019-06-01T00:20:02.443Z,4.40
2019-06-01T00:22:34.914Z,4.20
2019-06-01T00:25:10.454Z,5.00
2019-06-01T00:27:43.065Z,5.20
2019-06-01T00:30:26.585Z,4.60
2019-06-01T00:32:49.494Z,5.20
2019-06-01T00:35:21.958Z,2.80
2019-06-01T00:37:54.385Z,8.60
2019-06-01T00:42:09.807Z,6.00
2019-06-01T00:44:42.498Z,6.00
2019-06-01T00:47:14.855Z,7.00
2019-06-01T00:49:47.337Z,5.20
2019-06-01T00:52:19.961Z,5.40
2019-06-01T00:54:53.495Z,6.00
2019-06-01T00:57:26.149Z,6.40
2019-06-01T00:59:58.577Z,3.60
2019-06-01T01:02:31.009Z,3.00
2019-06-01T01:05:14.607Z,3.00
2019-06-01T01:07:48.807Z,6.20
2019-06-01T01:10:22.309Z,5.40
2019-06-01T01:13:05.702Z,5.60
2019-06-01T01:15:38.321Z,3.00
2019-06-01T01:18:11.593Z,4.80
2019-06-01T01:20:44.042Z,4.60
2019-06-01T01:23:16.786Z,5.60
2019-06-01T01:25:50.497Z,6.60
2019-06-01T01:28:23.990Z,5.60
2019-06-01T01:31:06.651Z,5.00
2019-06-01T01:33:30.358Z,5.00
2019-06-01T01:36:02.808Z,2.00
2019-06-01T01:41:14.979Z,3.80
2019-06-01T01:43:48.402Z,5.40
2019-06-01T01:46:21.061Z,3.80
2019-06-01T01:48:54.206Z,4.00
2019-06-01T01:51:26.690Z,4.40
2019-06-01T01:53:59.575Z,4.20
2019-06-01T01:56:31.984Z,3.60
2019-06-01T01:59:04.442Z,3.80
2019-06-01T02:01:36.968Z,4.00
2019-06-01T02:04:09.315Z,4.80
2019-06-01T02:06:41.724Z,4.00
2019-06-01T02:09:14.479Z,4.60
2019-06-01T02:11:46.955Z,3.00
2019-06-01T02:14:19.426Z,3.40
2019-06-01T02:16:51.978Z,4.20
2019-06-01T02:19:24.754Z,4.40
2019-06-01T02:21:57.113Z,5.00
2019-06-01T02:24:29.638Z,4.20
2019-06-01T02:27:03.209Z,5.00
2019-06-01T02:29:35.757Z,5.60
2019-06-01T02:32:08.128Z,3.80
2019-06-01T02:34:40.589Z,2.00
2019-06-01T02:37:13.006Z,4.20
2019-06-01T02:39:45.437Z,4.20
2019-06-01T02:42:17.833Z,4.40
2019-06-01T02:44:50.458Z,5.20
2019-06-01T02:47:22.831Z,3.40
2019-06-01T02:49:56.121Z,3.40
2019-06-01T02:52:29.650Z,5.00
2019-06-01T02:55:02.551Z,6.40
2019-06-01T02:57:35.897Z,6.00
2019-06-01T03:00:09.141Z,4.00
2019-06-01T03:02:41.984Z,4.00
2019-06-01T03:05:14.654Z,4.60
2019-06-01T03:07:48.590Z,5.00
2019-06-01T03:10:21.127Z,5.40
2019-06-01T03:12:56.467Z,6.60
2019-06-01T03:15:31.134Z,3.40
2019-06-01T03:18:05.666Z,3.00
2019-06-01T03:20:40.945Z,4.60
2019-06-01T03:23:16.325Z,3.00
2019-06-01T03:25:54.946Z,4.00
2019-06-01T03:28:29.546Z,4.60
2019-06-01T03:31:03.530Z,4.80
2019-06-01T03:33:35.776Z,5.80
2019-06-01T03:36:09.065Z,5.40
2019-06-01T03:38:41.938Z,3.00
2019-06-01T03:41:14.426Z,3.80
2019-06-01T03:43:47.126Z,4.60
2019-06-01T03:46:19.506Z,5.80
2019-06-01T03:48:51.913Z,4.00
2019-06-01T03:51:24.258Z,4.60
2019-06-01T03:53:56.636Z,3.40
2019-06-01T03:56:29.167Z,3.80
2019-06-01T03:59:02.995Z,4.20
2019-06-01T04:01:35.682Z,5.80
2019-06-01T04:04:09.241Z,4.00
2019-06-01T04:06:41.878Z,5.40
2019-06-01T04:09:14.780Z,5.80
2019-06-01T04:11:47.514Z,8.00
2019-06-01T04:14:19.948Z,5.40
2019-06-01T04:16:52.308Z,5.80
2019-06-01T04:19:24.699Z,6.20
2019-06-01T04:21:58.230Z,11.20
2019-06-01T04:24:30.610Z,9.25
2019-06-01T04:27:04.144Z,8.25
2019-06-01T04:29:38.058Z,7.75
2019-06-01T04:32:10.913Z,7.25
2019-06-01T04:34:43.859Z,8.25
2019-06-01T04:37:16.406Z,10.50
2019-06-01T04:39:48.594Z,14.00
2019-06-01T04:42:20.772Z,10.20
2019-06-01T04:44:52.990Z,16.00
2019-06-01T04:47:25.296Z,15.50
2019-06-01T04:49:57.468Z,16.00
2019-06-01T04:52:29.654Z,14.75
2019-06-01T04:55:01.870Z,11.00
2019-06-01T04:57:34.421Z,7.25
2019-06-01T05:00:24.224Z,7.00
2019-06-01T05:02:44.060Z,6.00
2019-06-01T05:05:16.986Z,6.40
2019-06-01T05:07:49.340Z,5.00
2019-06-01T05:10:22.519Z,5.80
2019-06-01T05:12:54.865Z,7.80
2019-06-01T05:15:27.285Z,5.40
2019-06-01T05:17:59.620Z,6.00
2019-06-01T05:20:32.036Z,3.80
2019-06-01T05:23:04.792Z,5.40
2019-06-01T05:25:37.218Z,6.80
2019-06-01T05:28:11.136Z,7.40
2019-06-01T05:30:43.655Z,6.80
2019-06-01T05:33:29.483Z,5.50
2019-06-01T05:35:49.988Z,3.75
2019-06-01T05:38:22.310Z,5.00
2019-06-01T05:40:54.790Z,6.25
2019-06-01T05:43:27.126Z,4.75
2019-06-01T05:45:59.509Z,6.25
2019-06-01T05:48:31.838Z,7.00
2019-06-01T05:51:04.260Z,5.25
2019-06-01T05:53:36.594Z,7.50
2019-06-01T05:56:08.966Z,8.00
2019-06-01T05:58:41.643Z,8.00
2019-06-01T06:01:14.922Z,10.00
2019-06-01T06:03:48.244Z,9.00
2019-06-01T06:06:20.403Z,11.50
2019-06-01T06:08:52.559Z,14.25
2019-06-01T06:11:25.020Z,15.75
2019-06-01T06:13:57.267Z,15.50
2019-06-01T06:16:29.468Z,18.25
2019-06-01T06:19:01.609Z,17.25
2019-06-01T06:21:33.810Z,16.50
2019-06-01T06:24:06.613Z,12.75
2019-06-01T06:26:38.758Z,16.75
2019-06-01T06:29:11.126Z,13.25
2019-06-01T06:31:43.276Z,13.75
2019-06-01T06:34:15.432Z,15.00
2019-06-01T06:36:47.637Z,18.00
2019-06-01T06:39:22.002Z,14.25
2019-06-01T06:41:54.381Z,16.75
2019-06-01T06:44:26.547Z,19.75
2019-06-01T06:46:58.744Z,21.50
2019-06-01T06:49:30.903Z,27.25
2019-06-01T06:52:03.783Z,19.00
2019-06-01T06:54:36.998Z,16.00
2019-06-01T06:57:09.214Z,15.25
2019-06-01T06:59:41.578Z,12.50
2019-06-01T07:02:13.910Z,12.75
2019-06-01T07:04:46.184Z,9.50
2019-06-01T07:07:19.500Z,13.50
2019-06-01T07:09:52.219Z,13.00
2019-06-01T07:12:25.377Z,9.25
2019-06-01T07:14:57.681Z,10.25
2019-06-01T07:17:29.841Z,11.75
2019-06-01T07:20:02.243Z,6.00
2019-06-01T07:22:34.780Z,5.75
2019-06-01T07:25:10.149Z,12.50
2019-06-01T07:27:42.413Z,8.25
2019-06-01T07:30:15.190Z,7.00
2019-06-01T07:32:47.878Z,11.50
2019-06-01T07:35:20.490Z,10.75
2019-06-01T07:37:52.784Z,11.00
2019-06-01T07:40:26.653Z,8.75
2019-06-01T07:42:59.068Z,9.00
2019-06-01T07:45:34.933Z,12.50
2019-06-01T07:48:05.424Z,9.50
2019-06-01T07:50:38.854Z,9.25
2019-06-01T07:53:10.993Z,10.00
2019-06-01T07:55:43.123Z,12.50
2019-06-01T07:58:15.542Z,10.25
2019-06-01T08:00:48.301Z,10.75
2019-06-01T08:03:22.453Z,10.75
2019-06-01T08:05:54.257Z,10.75
2019-06-01T08:08:27.329Z,10.75
2019-06-01T08:10:59.556Z,11.25
2019-06-01T08:13:35.277Z,13.00
2019-06-01T08:16:05.705Z,11.00
2019-06-01T08:18:38.034Z,9.50
2019-06-01T08:21:10.185Z,12.75
2019-06-01T08:23:42.322Z,11.50
2019-06-01T08:26:14.868Z,10.50
2019-06-01T08:28:47.192Z,8.75
2019-06-01T08:31:19.532Z,12.00
2019-06-01T08:33:51.777Z,13.75
2019-06-01T08:36:25.162Z,10.75
2019-06-01T08:38:57.405Z,14.50
2019-06-01T08:41:29.898Z,10.00
2019-06-01T08:44:02.207Z,12.25
2019-06-01T08:46:34.374Z,15.50
2019-06-01T08:49:06.493Z,12.50
2019-06-01T08:51:38.663Z,11.75
2019-06-01T08:54:10.851Z,12.75
2019-06-01T08:56:43.021Z,10.50
2019-06-01T08:59:15.143Z,12.75
2019-06-01T09:01:47.494Z,11.50
2019-06-01T09:04:19.623Z,10.00
2019-06-01T09:06:51.788Z,11.50
2019-06-01T09:09:24.902Z,9.25
2019-06-01T09:11:57.188Z,11.50
2019-06-01T09:14:29.486Z,13.25
2019-06-01T09:17:01.653Z,8.25
2019-06-01T09:19:33.873Z,11.50
2019-06-01T09:22:06.226Z,11.00
2019-06-01T09:24:38.406Z,13.00
2019-06-01T09:27:12.398Z,0.00
2019-06-01T09:29:44.852Z,11.75
2019-06-01T09:32:17.156Z,12.25
2019-06-01T09:34:49.616Z,10.00
2019-06-01T09:37:21.816Z,11.75
2019-06-01T09:39:54.125Z,3.00
2019-06-01T09:42:26.701Z,9.25
2019-06-01T09:44:58.901Z,11.25
2019-06-01T09:47:31.239Z,9.50
2019-06-01T09:50:03.395Z,10.00
2019-06-01T09:52:35.860Z,9.75
2019-06-01T09:55:09.789Z,8.00
2019-06-01T09:57:41.921Z,11.00
2019-06-01T10:00:15.951Z,10.00
2019-06-01T10:02:48.095Z,9.75
2019-06-01T10:05:20.644Z,7.50
2019-06-01T10:07:53.099Z,9.25
2019-06-01T10:10:26.660Z,10.00
2019-06-01T10:12:58.800Z,9.75
2019-06-01T10:15:32.403Z,8.50
2019-06-01T10:18:04.705Z,10.00
2019-06-01T10:20:37.043Z,12.00
2019-06-01T10:23:09.300Z,8.00
2019-06-01T10:25:42.721Z,10.50
2019-06-01T10:28:15.449Z,7.00
2019-06-01T10:30:47.945Z,12.00
2019-06-01T10:33:20.539Z,9.50
2019-06-01T10:35:53.122Z,7.75
2019-06-01T10:38:25.374Z,12.50
2019-06-01T10:40:57.526Z,9.50
2019-06-01T10:43:29.895Z,6.25
2019-06-01T10:46:02.026Z,12.00
2019-06-01T10:48:34.558Z,6.50
2019-06-01T10:51:07.993Z,10.00
2019-06-01T10:53:41.509Z,9.50
2019-06-01T10:56:13.956Z,11.25
2019-06-01T10:58:59.364Z,10.25
2019-06-01T11:01:20.456Z,8.25
2019-06-01T11:03:52.601Z,9.25
2019-06-01T11:06:36.789Z,11.75
2019-06-01T11:08:58.494Z,10.75
2019-06-01T11:11:30.878Z,9.25
2019-06-01T11:14:03.030Z,10.75
2019-06-01T11:16:35.366Z,9.00
2019-06-01T11:19:07.721Z,9.00
2019-06-01T11:21:39.842Z,11.00
2019-06-01T11:24:12.206Z,11.75
2019-06-01T11:26:44.465Z,10.00
2019-06-01T11:29:16.668Z,11.00
2019-06-01T11:31:49.255Z,12.25
2019-06-01T11:34:21.407Z,9.50
2019-06-01T11:37:05.009Z,9.50
2019-06-01T11:39:28.214Z,9.25
2019-06-01T11:42:00.569Z,12.00
2019-06-01T11:44:32.939Z,8.00
2019-06-01T11:47:05.053Z,7.75
2019-06-01T11:49:37.193Z,12.25
2019-06-01T11:52:09.596Z,9.00
2019-06-01T11:54:43.231Z,11.25
2019-06-01T11:57:15.672Z,11.50
2019-06-01T11:59:49.251Z,8.25
2019-06-01T12:02:21.892Z,9.25
2019-06-01T12:04:54.020Z,13.00
2019-06-01T12:07:26.173Z,11.50
2019-06-01T12:09:58.334Z,10.75
2019-06-01T12:12:30.452Z,11.00
2019-06-01T12:15:02.649Z,10.25
2019-06-01T12:17:34.837Z,10.75
2019-06-01T12:20:08.641Z,11.25
2019-06-01T12:22:40.918Z,12.25
2019-06-01T12:25:13.344Z,14.50
2019-06-01T12:27:46.068Z,13.00
2019-06-01T12:30:19.617Z,9.75
2019-06-01T12:32:52.391Z,9.75
2019-06-01T12:35:24.926Z,12.00
2019-06-01T12:38:06.085Z,12.25
2019-06-01T12:40:31.089Z,13.00
2019-06-01T12:43:03.252Z,9.00
2019-06-01T12:45:35.384Z,12.00
2019-06-01T12:48:07.581Z,10.75
2019-06-01T12:50:40.122Z,13.50
2019-06-01T12:53:12.577Z,11.00
2019-06-01T12:55:45.300Z,11.00
2019-06-01T12:58:17.820Z,9.75
2019-06-01T13:00:50.130Z,11.00
2019-06-01T13:03:22.672Z,9.75
2019-06-01T13:05:54.999Z,13.50
2019-06-01T13:08:27.173Z,15.75
2019-06-01T13:10:59.733Z,12.75
2019-06-01T13:13:31.991Z,12.50
2019-06-01T13:16:04.322Z,9.25
2019-06-01T13:18:36.585Z,10.50
2019-06-01T13:21:09.006Z,9.75
2019-06-01T13:23:41.371Z,11.75
2019-06-01T13:26:13.659Z,13.50
2019-06-01T13:28:46.138Z,11.75
2019-06-01T13:31:19.024Z,12.25
2019-06-01T13:33:52.366Z,11.50
2019-06-01T13:36:25.325Z,11.00
2019-06-01T13:38:57.604Z,10.50
2019-06-01T13:41:29.787Z,15.25
2019-06-01T13:44:01.963Z,12.25
2019-06-01T13:46:34.600Z,13.00
2019-06-01T13:49:06.895Z,14.75
2019-06-01T13:51:39.023Z,12.75
2019-06-01T13:54:11.388Z,14.50
2019-06-01T13:56:44.729Z,10.50
2019-06-01T13:59:17.022Z,10.25
2019-06-01T14:01:49.171Z,11.75
2019-06-01T14:04:21.873Z,12.50
2019-06-01T14:06:55.247Z,13.75
2019-06-01T14:09:27.825Z,10.00
2019-06-01T14:11:59.980Z,14.00
2019-06-01T14:14:32.203Z,12.75
2019-06-01T14:17:04.407Z,13.00
2019-06-01T14:19:36.579Z,13.25
2019-06-01T14:22:08.786Z,15.25
2019-06-01T14:24:44.631Z,15.25
2019-06-01T14:27:14.768Z,11.50
2019-06-01T14:29:48.180Z,13.25
2019-06-01T14:32:21.147Z,9.60
2019-06-01T14:34:54.815Z,10.20
2019-06-01T14:37:27.191Z,13.00
2019-06-01T14:39:59.604Z,9.80
2019-06-01T14:42:31.767Z,11.80
2019-06-01T14:45:04.070Z,14.00
2019-06-01T14:47:36.715Z,11.40
2019-06-01T14:50:09.662Z,12.40
2019-06-01T14:52:41.838Z,13.00
2019-06-01T14:55:15.570Z,15.00
2019-06-01T14:57:48.478Z,11.00
2019-06-01T15:00:21.294Z,12.60
2019-06-01T15:02:54.445Z,15.40
2019-06-01T15:05:26.859Z,13.40
2019-06-01T15:07:59.294Z,15.40
2019-06-01T15:10:31.547Z,12.20
2019-06-01T15:13:04.611Z,12.80
2019-06-01T15:15:36.809Z,10.20
2019-06-01T15:18:08.966Z,12.60
2019-06-01T15:20:41.165Z,13.20
2019-06-01T15:23:13.315Z,13.00
2019-06-01T15:25:45.600Z,13.60
2019-06-01T15:28:17.920Z,10.60
2019-06-01T15:30:50.891Z,13.00
2019-06-01T15:33:23.493Z,13.00
2019-06-01T15:35:57.691Z,11.00
2019-06-01T15:38:30.455Z,12.60
2019-06-01T15:41:02.844Z,12.60
2019-06-01T15:43:35.017Z,12.00
2019-06-01T15:46:07.213Z,11.20
2019-06-01T15:48:39.579Z,7.00
2019-06-01T15:51:12.001Z,14.80
2019-06-01T15:53:44.220Z,13.80
2019-06-01T15:56:16.646Z,16.80
2019-06-01T15:58:54.614Z,11.60
2019-06-01T16:01:23.640Z,11.20
2019-06-01T16:03:57.305Z,13.60
2019-06-01T16:06:30.198Z,14.20
2019-06-01T16:09:03.645Z,11.20
2019-06-01T16:11:36.317Z,13.00
2019-06-01T16:14:08.663Z,11.20
2019-06-01T16:16:41.104Z,13.20
2019-06-01T16:19:13.311Z,12.00
2019-06-01T16:21:45.503Z,13.80
2019-06-01T16:24:17.649Z,13.00
2019-06-01T16:26:49.832Z,10.80
2019-06-01T16:29:21.996Z,13.20
2019-06-01T16:31:54.629Z,9.60
2019-06-01T16:34:28.285Z,11.60
2019-06-01T16:37:01.072Z,10.20
2019-06-01T16:39:33.372Z,11.00
2019-06-01T16:42:06.249Z,8.40
2019-06-01T16:44:38.517Z,10.00
2019-06-01T16:47:10.809Z,10.40
2019-06-01T16:49:42.984Z,11.60
2019-06-01T16:52:15.249Z,9.60
2019-06-01T16:54:47.404Z,10.60
2019-06-01T16:57:19.937Z,12.00
2019-06-01T16:59:52.079Z,10.40
2019-06-01T17:02:24.458Z,9.20
2019-06-01T17:04:56.608Z,10.60
2019-06-01T17:07:29.199Z,8.60
2019-06-01T17:10:19.496Z,6.80
2019-06-01T17:12:35.455Z,7.00
2019-06-01T17:15:08.979Z,9.40
2019-06-01T17:17:41.200Z,9.80
2019-06-01T17:20:39.212Z,9.40
2019-06-01T17:23:25.859Z,5.00
2019-06-01T17:25:45.461Z,7.00
2019-06-01T17:28:17.893Z,8.80
2019-06-01T17:30:50.705Z,8.80
2019-06-01T17:33:23.021Z,11.60
2019-06-01T17:35:55.875Z,8.60
2019-06-01T17:38:28.286Z,11.00
2019-06-01T17:41:00.428Z,11.60
2019-06-01T17:43:32.721Z,10.00
2019-06-01T17:46:05.309Z,9.60
2019-06-01T17:48:38.292Z,7.00
2019-06-01T17:51:10.455Z,10.60
2019-06-01T17:53:42.638Z,10.60
2019-06-01T17:56:14.962Z,9.60
2019-06-01T17:58:47.891Z,6.20
2019-06-01T18:01:20.324Z,9.60
2019-06-01T18:03:52.618Z,8.20
2019-06-01T18:06:25.796Z,9.40
2019-06-01T18:08:58.669Z,8.00
2019-06-01T18:11:31.110Z,7.40
2019-06-01T18:14:04.091Z,7.60
2019-06-01T18:16:36.606Z,8.40
2019-06-01T18:19:08.778Z,10.20
2019-06-01T18:21:41.011Z,10.00
2019-06-01T18:24:13.556Z,9.60
2019-06-01T18:26:46.057Z,8.20
2019-06-01T18:29:18.795Z,8.40
2019-06-01T18:31:52.536Z,9.60
2019-06-01T18:34:24.872Z,10.80
2019-06-01T18:36:57.366Z,8.80
2019-06-01T18:39:29.807Z,10.20
2019-06-01T18:42:02.146Z,7.40
2019-06-01T18:44:34.619Z,7.40
2019-06-01T18:47:07.804Z,8.00
2019-06-01T18:49:40.252Z,11.00
2019-06-01T18:52:12.792Z,8.00
2019-06-01T18:54:45.189Z,8.20
2019-06-01T18:57:21.142Z,7.20
2019-06-01T18:59:51.612Z,7.80
2019-06-01T19:02:23.960Z,8.20
2019-06-01T19:04:56.131Z,10.00
2019-06-01T19:07:28.319Z,10.60
2019-06-01T19:10:00.685Z,9.40
2019-06-01T19:12:32.840Z,10.60
2019-06-01T19:15:21.843Z,8.40
2019-06-01T19:17:40.649Z,5.60
2019-06-01T19:20:13.165Z,9.00
2019-06-01T19:22:45.288Z,9.20
2019-06-01T19:25:18.987Z,8.20
2019-06-01T19:27:51.099Z,9.60
2019-06-01T19:30:40.211Z,9.20
2019-06-01T19:33:15.373Z,10.60
2019-06-01T19:35:46.762Z,9.00
2019-06-01T19:38:21.273Z,9.00
2019-06-01T19:40:54.026Z,7.20
2019-06-01T19:43:26.475Z,8.00
2019-06-01T19:45:59.027Z,6.60
2019-06-01T19:48:33.603Z,6.20
2019-06-01T19:51:06.006Z,4.00
2019-06-01T19:53:39.390Z,6.20
2019-06-01T19:56:12.826Z,5.60
2019-06-01T19:58:45.314Z,5.20
2019-06-01T20:01:19.530Z,5.00
2019-06-01T20:03:51.923Z,6.40
2019-06-01T20:06:24.310Z,5.20
2019-06-01T20:08:56.650Z,4.00
2019-06-01T20:11:29.174Z,3.80
2019-06-01T20:14:01.514Z,5.20
2019-06-01T20:16:33.891Z,5.60
2019-06-01T20:19:06.822Z,6.40
2019-06-01T20:21:39.186Z,5.80
2019-06-01T20:24:11.523Z,6.20
2019-06-01T20:26:48.940Z,5.00
2019-06-01T20:29:19.666Z,5.40
2019-06-01T20:31:52.256Z,4.20
2019-06-01T20:34:24.580Z,2.60
2019-06-01T20:36:56.965Z,4.80
2019-06-01T20:39:29.739Z,4.60
2019-06-01T20:42:17.222Z,4.60
2019-06-01T20:44:37.275Z,2.20
2019-06-01T20:47:09.872Z,4.60
2019-06-01T20:49:42.232Z,3.80
2019-06-01T20:52:14.779Z,5.00
2019-06-01T20:54:47.296Z,4.60
2019-06-01T20:57:19.985Z,4.20
2019-06-01T20:59:52.349Z,5.00
2019-06-01T21:02:25.147Z,3.20
2019-06-01T21:04:57.491Z,3.20
2019-06-01T21:07:29.891Z,5.40
2019-06-01T21:10:02.291Z,3.40
2019-06-01T21:12:44.807Z,4.20
2019-06-01T21:15:11.543Z,5.20
2019-06-01T21:17:44.232Z,5.00
2019-06-01T21:20:23.271Z,4.20
2019-06-01T21:22:50.858Z,5.00
2019-06-01T21:25:23.292Z,4.40
2019-06-01T21:27:55.628Z,4.20
2019-06-01T21:30:27.985Z,4.80
2019-06-01T21:33:00.427Z,4.20
2019-06-01T21:35:33.804Z,4.00
2019-06-01T21:38:06.325Z,4.20
2019-06-01T21:40:38.998Z,4.20
2019-06-01T21:43:23.718Z,2.80
2019-06-01T21:45:46.103Z,4.60
2019-06-01T21:48:19.517Z,0.00
2019-06-01T21:50:54.193Z,4.20
2019-06-01T21:53:26.716Z,4.00
2019-06-01T21:55:59.206Z,3.80
2019-06-01T21:58:31.565Z,3.80
2019-06-01T22:01:04.649Z,5.00
2019-06-01T22:03:37.632Z,0.20
2019-06-01T22:06:09.942Z,4.40
2019-06-01T22:08:51.994Z,5.20
2019-06-01T22:11:17.200Z,5.20
2019-06-01T22:13:50.496Z,5.20
2019-06-01T22:16:23.697Z,3.00
2019-06-01T22:18:56.199Z,5.00
2019-06-01T22:21:28.518Z,5.40
2019-06-01T22:24:01.033Z,4.60
2019-06-01T22:26:33.376Z,4.00
2019-06-01T22:29:05.839Z,2.80
2019-06-01T22:31:38.192Z,4.40
2019-06-01T22:34:10.558Z,3.80
2019-06-01T22:36:42.885Z,4.60
2019-06-01T22:39:15.266Z,4.80
2019-06-01T22:41:48.969Z,3.00
2019-06-01T22:44:22.122Z,5.20
2019-06-01T22:46:54.516Z,3.80
2019-06-01T22:49:26.908Z,4.80
2019-06-01T22:51:59.314Z,3.80
2019-06-01T22:54:31.696Z,4.60
2019-06-01T22:57:04.012Z,4.80
2019-06-01T22:59:36.493Z,5.80
2019-06-01T23:02:08.937Z,5.80
2019-06-01T23:04:41.509Z,5.00
2019-06-01T23:07:13.631Z,7.00
2019-06-01T23:09:45.969Z,4.40
2019-06-01T23:12:18.300Z,5.00
2019-06-01T23:14:50.833Z,5.00
2019-06-01T23:17:23.783Z,5.80
2019-06-01T23:19:56.217Z,5.80
2019-06-01T23:22:28.527Z,4.60
2019-06-01T23:25:00.910Z,6.00
2019-06-01T23:27:34.223Z,3.20
2019-06-01T23:30:08.733Z,4.60
2019-06-01T23:32:40.946Z,8.40
2019-06-01T23:35:13.224Z,5.60
2019-06-01T23:37:45.569Z,3.80
2019-06-01T23:40:17.966Z,5.80
2019-06-01T23:42:50.313Z,2.60
2019-06-01T23:45:22.951Z,3.60
2019-06-01T23:47:55.279Z,4.60
2019-06-01T23:50:27.685Z,3.80
2019-06-01T23:53:12.862Z,4.20
2019-06-01T23:55:34.177Z,5.80
2019-06-01T23:58:06.759Z,5.80
